LTCF

Kars Airport

Kars, Turkey
TAF LTCF 240140Z 2403/2412 VRB02KT 9999 SCT035 BECMG 2407/2409 21012KT -SHRA BKN035 BKN070
Issued Valid From Valid To
Oct-24 @ 01:40 UTC
(3 hours ago)
Oct-24 @ 03:00 UTC
(2 hours ago)
Oct-24 @ 12:00 UTC
(in 7 hours)
Oct-24 @ 03:00 to Oct-24 @ 07:00
TAF LTCF 240140Z 2403/2412 VRB02KT 9999 SCT035
Wind Visibility Clouds
Variable at 2 knots 10,000+ meters
  • Scattered at 3,500' AGL
Becoming Oct-24 @ 07:00 to Oct-24 @ 12:00
BECMG 2407/2409 21012KT -SHRA BKN035 BKN070
Wind Visibility Clouds Conditions
210° at 12 knots 10,000+ meters
  • Broken at 3,500' AGL
  • Broken at 7,000' AGL
  • Light Rain
TAF LTCF 240140Z 2403/2412 VRB02KT 9999 SCT035 BECMG 2407/2409 21012KT -SHRA BKN035 BKN070
Issued Oct-24 @ 01:40 UTC
(3 hours ago)
Valid From Oct-24 @ 03:00 UTC
(2 hours ago)
Valid To Oct-24 @ 12:00 UTC
(in 7 hours)
Oct-24 @ 03:00 - Oct-24 @ 07:00
Wind Visibility
Variable at 2 knots 10,000+ meters
Clouds
  • Scattered at 3,500' AGL
Becoming Oct-24 @ 07:00 - Oct-24 @ 12:00
Wind Visibility
210° at 12 knots 10,000+ meters
Clouds
  • Broken at 3,500' AGL
  • Broken at 7,000' AGL
Conditions
  • Light Rain